createdAt,value
2022-10-24T00:01:44.504Z,19.8
2022-10-24T00:04:11.076Z,19.8
2022-10-24T00:06:37.696Z,19.8
2022-10-24T00:09:04.323Z,19.7
2022-10-24T00:11:30.938Z,19.7
2022-10-24T00:13:57.561Z,19.6
2022-10-24T00:16:24.186Z,19.5
2022-10-24T00:18:50.815Z,19.4
2022-10-24T00:21:15.927Z,19.1
2022-10-24T00:23:41.070Z,18.9
2022-10-24T00:26:07.731Z,18.7
2022-10-24T00:28:34.307Z,18.5
2022-10-24T00:31:00.937Z,18.4
2022-10-24T00:33:27.558Z,18.2
2022-10-24T00:35:54.174Z,18
2022-10-24T00:38:20.817Z,17.9
2022-10-24T00:40:47.425Z,17.8
2022-10-24T00:43:14.051Z,17.6
2022-10-24T00:45:40.661Z,17.3
2022-10-24T00:48:07.289Z,17.2
2022-10-24T00:50:33.909Z,17
2022-10-24T00:53:00.585Z,16.9
2022-10-24T00:55:25.659Z,17.4
2022-10-24T00:57:52.281Z,17.4
2022-10-24T01:00:18.911Z,17.2
2022-10-24T01:02:45.539Z,17
2022-10-24T01:05:12.152Z,16.8
2022-10-24T01:07:38.775Z,16.7
2022-10-24T01:10:05.405Z,16.5
2022-10-24T01:12:32.015Z,16.4
2022-10-24T01:14:58.637Z,16.6
2022-10-24T01:17:25.345Z,16.6
2022-10-24T01:19:51.897Z,16.6
2022-10-24T01:22:18.510Z,17
2022-10-24T01:24:45.148Z,17
2022-10-24T01:27:10.272Z,17.1
2022-10-24T01:29:36.887Z,17.6
2022-10-24T01:32:03.508Z,17.8
2022-10-24T01:34:30.128Z,17.7
2022-10-24T01:36:56.756Z,17.7
2022-10-24T01:39:23.392Z,17.7
2022-10-24T01:41:49.996Z,17.8
2022-10-24T01:44:16.621Z,17.9
2022-10-24T01:46:43.252Z,18.2
2022-10-24T01:49:09.854Z,18.3
2022-10-24T01:51:36.510Z,18.3
2022-10-24T01:54:03.111Z,18.1
2022-10-24T01:56:29.742Z,18
2022-10-24T01:58:54.860Z,18.1
2022-10-24T02:01:21.500Z,18.3
2022-10-24T02:03:48.106Z,18.1
2022-10-24T02:06:14.755Z,17.9
2022-10-24T02:08:39.853Z,17.6
2022-10-24T02:11:06.491Z,17.4
2022-10-24T02:13:33.115Z,17.2
2022-10-24T02:15:59.732Z,17
2022-10-24T02:18:26.350Z,16.9
2022-10-24T02:20:52.977Z,17.2
2022-10-24T02:23:19.607Z,17.1
2022-10-24T02:25:46.216Z,17
2022-10-24T02:28:12.835Z,17
2022-10-24T02:30:39.470Z,17
2022-10-24T02:33:06.168Z,17
2022-10-24T02:35:32.723Z,17
2022-10-24T02:37:59.365Z,16.9
2022-10-24T02:40:24.465Z,16.9
2022-10-24T02:42:51.138Z,17
2022-10-24T02:45:17.752Z,17.2
2022-10-24T02:47:44.340Z,17.5
2022-10-24T02:50:10.968Z,17.7
2022-10-24T02:52:37.565Z,17.9
2022-10-24T02:55:04.213Z,18
2022-10-24T02:57:30.836Z,18
2022-10-24T02:59:57.495Z,17.9
2022-10-24T03:02:24.120Z,17.7
2022-10-24T03:04:50.688Z,17.4
2022-10-24T03:09:43.945Z,16.9
2022-10-24T03:12:09.085Z,16.8
2022-10-24T03:14:35.690Z,16.6
2022-10-24T03:17:02.307Z,16.5
2022-10-24T03:19:28.936Z,16.4
2022-10-24T03:21:55.559Z,16.5
2022-10-24T03:24:22.216Z,16.6
2022-10-24T03:26:48.804Z,16.9
2022-10-24T03:29:15.452Z,17.3
2022-10-24T03:31:42.045Z,17.3
2022-10-24T03:34:08.691Z,17.4
2022-10-24T03:36:35.292Z,17.6
2022-10-24T03:39:01.914Z,17.6
2022-10-24T03:41:28.552Z,17.7
2022-10-24T03:43:55.168Z,17.8
2022-10-24T03:46:21.788Z,17.8
2022-10-24T03:48:46.916Z,17.8
2022-10-24T03:51:13.558Z,17.7
2022-10-24T03:53:40.151Z,17.9
2022-10-24T03:56:06.772Z,17.8
2022-10-24T03:58:33.402Z,17.8
2022-10-24T04:01:00.039Z,17.8
2022-10-24T04:03:26.656Z,17.8
2022-10-24T04:05:53.343Z,17.9
2022-10-24T04:08:19.890Z,17.8
2022-10-24T04:10:46.520Z,17.7
2022-10-24T04:13:13.128Z,17.4
2022-10-24T04:15:39.769Z,17.2
2022-10-24T04:18:06.390Z,17.1
2022-10-24T04:20:31.511Z,16.9
2022-10-24T04:22:58.152Z,16.8
2022-10-24T04:25:24.792Z,16.7
2022-10-24T04:27:51.382Z,16.6
2022-10-24T04:30:18.042Z,16.6
2022-10-24T04:32:44.637Z,16.4
2022-10-24T04:35:11.257Z,16.3
2022-10-24T04:37:37.871Z,16.2
2022-10-24T04:40:04.507Z,16.2
2022-10-24T04:42:31.126Z,16.2
2022-10-24T04:44:57.756Z,16.2
2022-10-24T04:47:24.363Z,16.1
2022-10-24T04:49:50.989Z,16.1
2022-10-24T04:52:16.152Z,16
2022-10-24T04:54:42.741Z,16
2022-10-24T04:57:09.356Z,16
2022-10-24T04:59:35.980Z,15.9
2022-10-24T05:02:02.607Z,15.9
2022-10-24T05:04:29.236Z,15.8
2022-10-24T05:06:55.870Z,15.8
2022-10-24T05:09:22.481Z,15.8
2022-10-24T05:11:49.097Z,15.9
2022-10-24T05:14:15.763Z,16
2022-10-24T05:16:42.353Z,16
2022-10-24T05:19:08.963Z,15.9
2022-10-24T05:21:35.604Z,15.9
2022-10-24T05:24:00.755Z,15.9
2022-10-24T05:26:27.386Z,15.9
2022-10-24T05:28:53.979Z,15.9
2022-10-24T05:31:20.610Z,15.8
2022-10-24T05:33:47.212Z,16
2022-10-24T05:36:13.832Z,16.1
2022-10-24T05:38:40.449Z,16.1
2022-10-24T05:41:07.122Z,16.1
2022-10-24T05:43:33.739Z,16.3
2022-10-24T05:46:00.325Z,16.2
2022-10-24T05:48:26.963Z,16.2
2022-10-24T05:50:53.563Z,16.1
2022-10-24T05:53:20.256Z,16.2
2022-10-24T05:55:45.328Z,16.2
2022-10-24T05:58:11.983Z,16.4
2022-10-24T06:00:38.560Z,16.5
2022-10-24T06:03:05.185Z,16.5
2022-10-24T06:05:31.838Z,16.5
2022-10-24T06:07:58.478Z,16.6
2022-10-24T06:10:25.084Z,16.6
2022-10-24T06:12:51.792Z,16.7
2022-10-24T06:15:18.346Z,16.7
2022-10-24T06:17:44.985Z,16.7
2022-10-24T06:20:11.540Z,16.7
2022-10-24T06:22:38.160Z,16.7
2022-10-24T06:25:04.790Z,16.8
2022-10-24T06:27:29.907Z,17
2022-10-24T06:29:56.575Z,17.1
2022-10-24T06:32:23.247Z,17.2
2022-10-24T06:34:49.804Z,17.4
2022-10-24T06:37:16.420Z,17.5
2022-10-24T06:39:43.118Z,17.6
2022-10-24T06:42:09.678Z,17.5
2022-10-24T06:44:36.316Z,17.2
2022-10-24T06:47:03.040Z,17.1
2022-10-24T06:49:29.590Z,17.1
2022-10-24T06:51:56.156Z,17
2022-10-24T06:54:22.790Z,16.9
2022-10-24T06:56:49.423Z,16.8
2022-10-24T06:59:14.525Z,16.7
2022-10-24T07:01:41.157Z,16.7
2022-10-24T07:04:07.798Z,16.6
2022-10-24T07:06:34.409Z,16.5
2022-10-24T07:09:01.056Z,16.5
2022-10-24T07:11:27.663Z,16.3
2022-10-24T07:13:54.307Z,16.2
2022-10-24T07:16:20.916Z,16.2
2022-10-24T07:18:47.535Z,16.2
2022-10-24T07:21:14.163Z,16.2
2022-10-24T07:23:40.832Z,16.2
2022-10-24T07:26:07.373Z,16.1
2022-10-24T07:28:34.022Z,16.1
2022-10-24T07:30:59.123Z,16.1
2022-10-24T07:33:25.736Z,15.9
2022-10-24T07:35:52.415Z,15.8
2022-10-24T07:38:18.996Z,15.7
2022-10-24T07:40:45.615Z,15.7
2022-10-24T07:43:12.242Z,15.6
2022-10-24T07:45:38.866Z,15.6
2022-10-24T07:48:05.473Z,15.6
2022-10-24T07:50:32.108Z,15.6
2022-10-24T07:52:58.733Z,15.6
2022-10-24T07:55:25.371Z,15.7
2022-10-24T07:57:51.996Z,15.6
2022-10-24T08:00:18.793Z,15.7
2022-10-24T08:02:43.743Z,15.7
2022-10-24T08:07:37.019Z,15.7
2022-10-24T08:10:03.631Z,15.7
2022-10-24T08:12:30.220Z,15.7
2022-10-24T08:14:56.836Z,15.7
2022-10-24T08:17:23.501Z,15.7
2022-10-24T08:19:50.082Z,15.6
2022-10-24T08:22:16.707Z,15.6
2022-10-24T08:24:43.341Z,15.6
2022-10-24T08:27:09.948Z,15.7
2022-10-24T08:29:36.573Z,15.8
2022-10-24T08:32:03.259Z,15.8
2022-10-24T08:34:28.460Z,15.8
2022-10-24T08:36:54.983Z,15.8
2022-10-24T08:39:21.560Z,15.8
2022-10-24T08:41:48.368Z,15.7
2022-10-24T08:44:14.809Z,15.7
2022-10-24T08:46:41.450Z,15.7
2022-10-24T08:49:08.081Z,15.7
2022-10-24T08:51:34.738Z,15.7
2022-10-24T08:56:27.932Z,15.7
2022-10-24T08:58:54.535Z,15.8
2022-10-24T09:01:21.172Z,15.8
2022-10-24T09:03:47.813Z,15.8
2022-10-24T09:06:14.443Z,15.8
2022-10-24T09:08:39.552Z,15.8
2022-10-24T09:11:06.179Z,15.9
2022-10-24T09:13:32.797Z,15.9
2022-10-24T09:15:59.438Z,15.9
2022-10-24T09:18:26.061Z,15.9
2022-10-24T09:20:52.659Z,15.9
2022-10-24T09:23:19.271Z,16
2022-10-24T09:25:45.901Z,16.1
2022-10-24T09:28:12.573Z,16.1
2022-10-24T09:30:39.229Z,16.1
2022-10-24T09:33:05.775Z,16.1
2022-10-24T09:35:32.391Z,16.2
2022-10-24T09:37:59.008Z,16.2
2022-10-24T09:40:24.197Z,16.3
2022-10-24T09:42:51.006Z,16.2
2022-10-24T09:45:17.401Z,16.3
2022-10-24T09:47:44.257Z,16.3
2022-10-24T09:50:10.639Z,16.3
2022-10-24T09:52:37.273Z,16.3
2022-10-24T09:55:04.080Z,16.3
2022-10-24T09:57:30.528Z,16.3
2022-10-24T09:59:57.123Z,16.3
2022-10-24T10:02:23.763Z,16.3
2022-10-24T10:04:50.371Z,16.3
2022-10-24T10:07:17.002Z,16.4
2022-10-24T10:09:43.625Z,16.4
2022-10-24T10:12:08.748Z,16.4
2022-10-24T10:14:35.367Z,16.4
2022-10-24T10:17:01.996Z,16.4
2022-10-24T10:19:27.123Z,16.4
2022-10-24T10:21:53.747Z,16.5
2022-10-24T10:24:20.372Z,16.5
2022-10-24T10:26:47.014Z,16.5
2022-10-24T10:29:13.620Z,16.6
2022-10-24T10:31:40.229Z,16.7
2022-10-24T10:34:06.866Z,16.8
2022-10-24T10:36:33.473Z,16.9
2022-10-24T10:39:00.098Z,17
2022-10-24T10:41:26.713Z,17.2
2022-10-24T10:43:53.361Z,17.3
2022-10-24T10:46:20.024Z,17.3
2022-10-24T10:48:46.597Z,17.4
2022-10-24T10:51:11.757Z,17.4
2022-10-24T10:53:38.381Z,17.5
2022-10-24T10:56:04.957Z,17.5
2022-10-24T10:58:31.764Z,17.6
2022-10-24T11:00:58.198Z,17.6
2022-10-24T11:03:24.840Z,17.6
2022-10-24T11:05:51.459Z,17.6
2022-10-24T11:08:18.087Z,17.5
2022-10-24T11:10:44.704Z,17.6
2022-10-24T11:13:11.329Z,17.6
2022-10-24T11:15:37.947Z,17.7
2022-10-24T11:18:04.569Z,17.7
2022-10-24T11:20:31.194Z,17.8
2022-10-24T11:22:56.324Z,17.9
2022-10-24T11:25:22.937Z,17.9
2022-10-24T11:27:49.572Z,18
2022-10-24T11:30:16.204Z,18
2022-10-24T11:32:42.813Z,17.9
2022-10-24T11:35:09.448Z,18
2022-10-24T11:37:36.051Z,18
2022-10-24T11:40:02.678Z,18
2022-10-24T11:42:29.306Z,18
2022-10-24T11:44:55.969Z,18
2022-10-24T11:47:22.571Z,18
2022-10-24T11:49:49.180Z,18.1
2022-10-24T11:52:15.787Z,18.1
2022-10-24T11:54:40.925Z,18.1
2022-10-24T11:57:07.558Z,18.1
2022-10-24T11:59:34.179Z,18.1
2022-10-24T12:02:00.800Z,18.1
2022-10-24T12:04:27.427Z,18.1
2022-10-24T12:06:54.043Z,18.2
2022-10-24T12:09:20.668Z,18.2
2022-10-24T12:11:47.349Z,18.1
2022-10-24T12:14:13.938Z,18.1
2022-10-24T12:16:40.553Z,18.1
2022-10-24T12:19:07.148Z,18.2
2022-10-24T12:21:33.774Z,18.1
2022-10-24T12:24:00.402Z,18.1
2022-10-24T12:26:25.553Z,18.2
2022-10-24T12:28:52.177Z,18.2
2022-10-24T12:31:18.789Z,18.2
2022-10-24T12:33:45.417Z,18.2
2022-10-24T12:36:12.029Z,18.2
2022-10-24T12:38:38.645Z,18.1
2022-10-24T12:41:05.281Z,18.1
2022-10-24T12:43:31.892Z,18.1
2022-10-24T12:45:58.511Z,18.1
2022-10-24T12:48:25.123Z,18.1
2022-10-24T12:50:52.011Z,18.1
2022-10-24T12:53:18.403Z,18.1
2022-10-24T12:55:45.014Z,18.1
2022-10-24T12:58:11.634Z,18.1
2022-10-24T13:00:36.763Z,18.1
2022-10-24T13:03:03.384Z,18.2
2022-10-24T13:05:30.006Z,18.3
2022-10-24T13:07:56.607Z,18.4
2022-10-24T13:10:23.282Z,18.4
2022-10-24T13:12:49.865Z,18.4
2022-10-24T13:15:16.493Z,18.5
2022-10-24T13:17:43.113Z,18.5
2022-10-24T13:20:09.732Z,18.5
2022-10-24T13:22:36.356Z,18.6
2022-10-24T13:25:02.984Z,18.7
2022-10-24T13:27:29.611Z,18.7
2022-10-24T13:29:56.221Z,18.7
2022-10-24T13:32:22.859Z,18.6
2022-10-24T13:34:47.992Z,18.6
2022-10-24T13:37:14.624Z,18.6
2022-10-24T13:39:41.226Z,18.6
2022-10-24T13:42:07.881Z,18.6
2022-10-24T13:47:01.089Z,18.6
2022-10-24T13:49:27.710Z,18.6
2022-10-24T13:51:54.327Z,18.7
2022-10-24T13:54:20.988Z,18.7
2022-10-24T13:56:47.582Z,18.7
2022-10-24T13:59:14.235Z,18.7
2022-10-24T14:01:40.828Z,18.7
2022-10-24T14:04:07.439Z,18.7
2022-10-24T14:06:32.579Z,18.6
2022-10-24T14:08:59.203Z,18.6
2022-10-24T14:11:25.822Z,18.5
2022-10-24T14:13:52.439Z,18.5
2022-10-24T14:16:19.067Z,18.5
2022-10-24T14:18:45.689Z,18.4
2022-10-24T14:21:12.341Z,18.4
2022-10-24T14:23:38.951Z,18.2
2022-10-24T14:26:05.614Z,18.1
2022-10-24T14:30:58.808Z,18.1
2022-10-24T14:33:25.419Z,18.1
2022-10-24T14:35:52.061Z,18.1
2022-10-24T14:38:17.197Z,18
2022-10-24T14:40:43.804Z,18
2022-10-24T14:43:10.413Z,17.9
2022-10-24T14:45:37.063Z,17.9
2022-10-24T14:48:03.693Z,17.8
2022-10-24T14:50:30.282Z,17.7
2022-10-24T14:52:56.903Z,17.6
2022-10-24T14:55:23.530Z,17.7
2022-10-24T14:57:50.146Z,17.9
2022-10-24T15:00:16.769Z,18
2022-10-24T15:02:43.402Z,18.3
2022-10-24T15:05:10.016Z,18.4
2022-10-24T15:07:36.658Z,18.5
2022-10-24T15:10:03.268Z,18.5
2022-10-24T15:12:28.439Z,18.5
2022-10-24T15:14:55.006Z,18.5
2022-10-24T15:17:21.639Z,18.4
2022-10-24T15:19:48.258Z,18.3
2022-10-24T15:22:14.881Z,18.2
2022-10-24T15:24:41.509Z,18.2
2022-10-24T15:29:34.743Z,17.9
2022-10-24T15:32:01.366Z,17.8
2022-10-24T15:34:27.992Z,17.7
2022-10-24T15:39:21.266Z,17.6
2022-10-24T15:44:14.488Z,17.5
2022-10-24T15:46:39.613Z,17.4
2022-10-24T15:49:04.729Z,17.4
2022-10-24T15:51:31.363Z,17.3
2022-10-24T15:53:57.967Z,17.2
2022-10-24T15:56:24.609Z,17.2
2022-10-24T15:58:51.230Z,17.1
2022-10-24T16:01:17.846Z,17
2022-10-24T16:03:44.474Z,16.9
2022-10-24T16:06:11.098Z,16.8
2022-10-24T16:08:37.716Z,16.8
2022-10-24T16:13:30.975Z,16.7
2022-10-24T16:15:57.600Z,16.6
2022-10-24T16:18:24.212Z,16.5
2022-10-24T16:20:50.833Z,16.4
2022-10-24T16:23:17.451Z,16.3
2022-10-24T16:25:42.589Z,16.3
2022-10-24T16:28:09.266Z,16.2
2022-10-24T16:33:02.462Z,16.1
2022-10-24T16:35:27.585Z,16
2022-10-24T16:37:52.708Z,15.9
2022-10-24T16:42:45.963Z,15.6
2022-10-24T16:45:12.564Z,15.5
2022-10-24T16:47:39.197Z,15.5
2022-10-24T16:50:05.835Z,15.4
2022-10-24T16:52:32.436Z,15.3
2022-10-24T16:54:59.095Z,15.3
2022-10-24T16:57:25.699Z,15.2
2022-10-24T16:59:52.355Z,15.2
2022-10-24T17:02:18.945Z,15.1
2022-10-24T17:04:45.565Z,15.1
2022-10-24T17:07:12.185Z,15.1
2022-10-24T17:09:37.317Z,15
2022-10-24T17:12:03.932Z,15
2022-10-24T17:14:30.562Z,15
2022-10-24T17:16:57.171Z,14.9
2022-10-24T17:19:23.811Z,14.9
2022-10-24T17:21:50.431Z,14.8
2022-10-24T17:24:17.042Z,14.8
2022-10-24T17:26:43.665Z,14.8
2022-10-24T17:29:08.801Z,14.8
2022-10-24T17:31:33.923Z,14.7
2022-10-24T17:34:00.549Z,14.7
2022-10-24T17:36:27.175Z,14.7
2022-10-24T17:38:53.787Z,14.7
2022-10-24T17:41:20.458Z,14.7
2022-10-24T17:43:47.042Z,14.7
2022-10-24T17:46:13.649Z,14.7
2022-10-24T17:48:40.267Z,14.7
2022-10-24T17:51:06.954Z,14.7
2022-10-24T17:53:33.536Z,14.7
2022-10-24T17:55:58.660Z,14.7
2022-10-24T17:58:25.270Z,14.6
2022-10-24T18:00:50.408Z,14.6
2022-10-24T18:03:17.051Z,14.6
2022-10-24T18:05:43.660Z,14.6
2022-10-24T18:08:10.290Z,14.6
2022-10-24T18:10:36.898Z,14.5
2022-10-24T18:13:03.560Z,14.4
2022-10-24T18:15:30.162Z,14.4
2022-10-24T18:17:56.776Z,14.3
2022-10-24T18:20:23.380Z,14.2
2022-10-24T18:25:16.639Z,14.1
2022-10-24T18:27:43.260Z,14.2
2022-10-24T18:30:08.389Z,14.2
2022-10-24T18:32:35.021Z,14.4
2022-10-24T18:35:01.631Z,14.5
2022-10-24T18:42:21.501Z,13.4
2022-10-24T18:44:46.658Z,13
2022-10-24T18:47:13.260Z,12.8
2022-10-24T18:49:39.872Z,12.6
2022-10-24T18:52:06.513Z,12.5
2022-10-24T18:54:31.642Z,12.5
2022-10-24T18:56:58.271Z,12.4
2022-10-24T19:01:51.487Z,12.3
2022-10-24T19:04:18.106Z,12.2
2022-10-24T19:11:37.980Z,12.2
2022-10-24T19:14:04.599Z,12.1
2022-10-24T19:18:57.864Z,12.1
2022-10-24T19:21:24.499Z,12
2022-10-24T19:23:49.620Z,12
2022-10-24T19:26:16.314Z,12
2022-10-24T19:28:41.390Z,12
2022-10-24T19:31:08.045Z,12
2022-10-24T19:36:01.258Z,12
2022-10-24T19:38:27.868Z,12.1
2022-10-24T19:40:54.504Z,12.1
2022-10-24T19:43:21.120Z,12.1
2022-10-24T19:45:47.723Z,12.1
2022-10-24T19:48:14.330Z,12
2022-10-24T19:50:41.041Z,11.9
2022-10-24T19:55:34.216Z,11.9
2022-10-24T19:58:00.830Z,11.9
2022-10-24T20:00:27.457Z,11.9
2022-10-24T20:02:52.592Z,11.9
2022-10-24T20:05:19.208Z,11.9
2022-10-24T20:07:45.828Z,11.9
2022-10-24T20:10:12.484Z,12
2022-10-24T20:12:39.063Z,12
2022-10-24T20:15:05.692Z,12
2022-10-24T20:17:32.308Z,12
2022-10-24T20:19:58.942Z,12
2022-10-24T20:22:25.562Z,12
2022-10-24T20:24:52.182Z,12.1
2022-10-24T20:27:17.341Z,12.1
2022-10-24T20:29:43.949Z,12.1
2022-10-24T20:32:09.057Z,12.2
2022-10-24T20:37:02.301Z,12.3
2022-10-24T20:39:28.945Z,12.3
2022-10-24T20:41:55.549Z,12.4
2022-10-24T20:46:48.838Z,12.4
2022-10-24T20:51:42.049Z,12.5
2022-10-24T20:54:08.927Z,12.5
2022-10-24T20:56:35.310Z,12.5
2022-10-24T21:01:28.535Z,12.6
2022-10-24T21:03:55.190Z,12.6
2022-10-24T21:06:21.782Z,12.6
2022-10-24T21:08:48.432Z,12.6
2022-10-24T21:11:13.542Z,12.7
2022-10-24T21:13:40.158Z,12.7
2022-10-24T21:16:06.772Z,12.7
2022-10-24T21:20:58.528Z,12.7
2022-10-24T21:23:25.142Z,12.6
2022-10-24T21:25:51.769Z,12.6
2022-10-24T21:28:18.428Z,12.6
2022-10-24T21:30:45.017Z,12.6
2022-10-24T21:33:11.645Z,12.5
2022-10-24T21:35:39.174Z,12.5
2022-10-24T21:38:04.899Z,12.4
2022-10-24T21:42:58.120Z,12.3
2022-10-24T21:45:24.807Z,12.3
2022-10-24T21:52:44.634Z,12.1
2022-10-24T21:55:09.784Z,12.1
2022-10-24T21:57:36.406Z,12.1
2022-10-24T22:04:56.301Z,11.9
2022-10-24T22:07:22.949Z,11.9
2022-10-24T22:09:49.519Z,11.9
2022-10-24T22:12:16.170Z,11.8
2022-10-24T22:14:42.783Z,11.8
2022-10-24T22:17:09.440Z,11.8
2022-10-24T22:19:35.982Z,11.7
2022-10-24T22:22:02.613Z,11.7
2022-10-24T22:24:29.232Z,11.6
2022-10-24T22:26:55.870Z,11.6
2022-10-24T22:29:22.534Z,11.6
2022-10-24T22:31:47.621Z,11.6
2022-10-24T22:34:14.243Z,11.5
2022-10-24T22:36:40.872Z,11.4
2022-10-24T22:39:07.477Z,11.4
2022-10-24T22:41:34.113Z,11.4
2022-10-24T22:44:00.809Z,11.4
2022-10-24T22:46:27.338Z,11.3
2022-10-24T22:48:53.967Z,11.3
2022-10-24T22:51:19.137Z,11.2
2022-10-24T22:53:44.220Z,11.2
2022-10-24T22:56:10.873Z,11.2
2022-10-24T22:58:37.452Z,11.2
2022-10-24T23:03:30.827Z,11
2022-10-24T23:05:57.423Z,10.9
2022-10-24T23:08:23.947Z,10.7
2022-10-24T23:10:50.609Z,10.6
2022-10-24T23:13:17.221Z,10.5
2022-10-24T23:15:43.870Z,10.4
2022-10-24T23:18:10.461Z,10.4
2022-10-24T23:20:37.161Z,10.3
2022-10-24T23:23:03.690Z,10.3
2022-10-24T23:25:28.825Z,10.3
2022-10-24T23:27:55.497Z,10.3
2022-10-24T23:30:22.059Z,10.2
2022-10-24T23:32:48.688Z,10.2
2022-10-24T23:35:15.301Z,10.2
2022-10-24T23:37:41.944Z,10.2
2022-10-24T23:40:08.564Z,10.2
2022-10-24T23:42:35.164Z,10.2
2022-10-24T23:45:00.311Z,10.3
2022-10-24T23:47:25.449Z,10.2
2022-10-24T23:49:52.061Z,10.1
2022-10-24T23:52:18.742Z,10.1
2022-10-24T23:54:45.300Z,9.9
2022-10-24T23:57:11.923Z,9.8
2022-10-24T23:59:38.549Z,9.7
